sensor_id;sensor_type;location;lat;lon;timestamp;pressure;altitude;pressure_sealevel;temperature;humidity
54806;BME280;62866;55.776;37.496;2023-01-29T00:01:42;100017.00;;;-1.39;80.28
54806;BME280;62866;55.776;37.496;2023-01-29T00:04:07;100008.41;;;-1.41;80.13
54806;BME280;62866;55.776;37.496;2023-01-29T00:06:33;100002.31;;;-1.41;80.27
54806;BME280;62866;55.776;37.496;2023-01-29T00:08:58;100019.19;;;-1.33;80.63
54806;BME280;62866;55.776;37.496;2023-01-29T00:11:24;100007.16;;;-1.35;80.16
54806;BME280;62866;55.776;37.496;2023-01-29T00:13:51;100018.25;;;-1.32;79.98
54806;BME280;62866;55.776;37.496;2023-01-29T00:16:16;100001.91;;;-1.35;79.75
54806;BME280;62866;55.776;37.496;2023-01-29T00:18:42;100011.63;;;-1.25;79.99
54806;BME280;62866;55.776;37.496;2023-01-29T00:21:12;100006.81;;;-1.31;80.11
54806;BME280;62866;55.776;37.496;2023-01-29T00:23:38;99935.56;;;-1.74;79.53
54806;BME280;62866;55.776;37.496;2023-01-29T00:26:04;100000.53;;;-1.41;80.35
54806;BME280;62866;55.776;37.496;2023-01-29T00:28:30;99997.22;;;-1.43;79.99
54806;BME280;62866;55.776;37.496;2023-01-29T00:30:55;100007.69;;;-1.43;80.11
54806;BME280;62866;55.776;37.496;2023-01-29T00:33:21;99969.72;;;-1.50;80.32
54806;BME280;62866;55.776;37.496;2023-01-29T00:35:47;99998.94;;;-1.31;80.08
54806;BME280;62866;55.776;37.496;2023-01-29T00:38:13;99989.41;;;-1.32;79.93
54806;BME280;62866;55.776;37.496;2023-01-29T00:40:39;99994.88;;;-1.35;79.58
54806;BME280;62866;55.776;37.496;2023-01-29T00:43:24;99982.91;;;-1.39;79.71
54806;BME280;62866;55.776;37.496;2023-01-29T00:46:08;99989.84;;;-1.38;79.35
54806;BME280;62866;55.776;37.496;2023-01-29T00:48:34;99993.31;;;-1.37;79.13
54806;BME280;62866;55.776;37.496;2023-01-29T00:51:01;99987.94;;;-1.36;79.24
54806;BME280;62866;55.776;37.496;2023-01-29T00:53:27;99984.59;;;-1.38;79.17
54806;BME280;62866;55.776;37.496;2023-01-29T00:55:53;99989.19;;;-1.41;79.05
54806;BME280;62866;55.776;37.496;2023-01-29T00:58:18;99972.88;;;-1.58;79.32
54806;BME280;62866;55.776;37.496;2023-01-29T01:00:47;99979.25;;;-1.49;79.13
54806;BME280;62866;55.776;37.496;2023-01-29T01:03:14;99986.19;;;-1.48;79.21
54806;BME280;62866;55.776;37.496;2023-01-29T01:05:39;99987.56;;;-1.55;79.04
54806;BME280;62866;55.776;37.496;2023-01-29T01:08:07;99969.94;;;-1.53;79.56
54806;BME280;62866;55.776;37.496;2023-01-29T01:11:04;99978.44;;;-1.62;78.81
54806;BME280;62866;55.776;37.496;2023-01-29T01:13:32;99976.66;;;-1.62;78.92
54806;BME280;62866;55.776;37.496;2023-01-29T01:15:58;99973.22;;;-1.62;79.27
54806;BME280;62866;55.776;37.496;2023-01-29T01:18:24;99982.31;;;-1.55;79.02
54806;BME280;62866;55.776;37.496;2023-01-29T01:20:56;99981.38;;;-1.54;78.85
54806;BME280;62866;55.776;37.496;2023-01-29T01:23:22;99981.56;;;-1.57;78.22
54806;BME280;62866;55.776;37.496;2023-01-29T01:25:48;99985.25;;;-1.47;78.32
54806;BME280;62866;55.776;37.496;2023-01-29T01:28:13;99990.28;;;-1.44;77.65
54806;BME280;62866;55.776;37.496;2023-01-29T01:30:39;99988.50;;;-1.43;77.95
54806;BME280;62866;55.776;37.496;2023-01-29T01:33:05;99984.28;;;-1.46;77.89
54806;BME280;62866;55.776;37.496;2023-01-29T01:35:31;99980.50;;;-1.42;77.46
54806;BME280;62866;55.776;37.496;2023-01-29T01:37:56;99959.22;;;-1.50;77.72
54806;BME280;62866;55.776;37.496;2023-01-29T01:40:23;99979.44;;;-1.39;77.48
54806;BME280;62866;55.776;37.496;2023-01-29T01:42:51;99972.31;;;-1.37;77.67
54806;BME280;62866;55.776;37.496;2023-01-29T01:45:29;99967.56;;;-1.32;77.29
54806;BME280;62866;55.776;37.496;2023-01-29T01:48:00;99957.28;;;-1.59;77.33
54806;BME280;62866;55.776;37.496;2023-01-29T01:53:07;99966.59;;;-1.55;77.45
54806;BME280;62866;55.776;37.496;2023-01-29T01:55:34;99963.75;;;-1.52;77.67
54806;BME280;62866;55.776;37.496;2023-01-29T01:58:13;99946.06;;;-1.74;77.45
54806;BME280;62866;55.776;37.496;2023-01-29T02:00:41;99946.69;;;-1.70;77.71
54806;BME280;62866;55.776;37.496;2023-01-29T02:03:08;99948.97;;;-1.66;77.65
54806;BME280;62866;55.776;37.496;2023-01-29T02:05:56;99947.63;;;-1.71;77.55
54806;BME280;62866;55.776;37.496;2023-01-29T02:08:53;99945.84;;;-1.71;77.27
54806;BME280;62866;55.776;37.496;2023-01-29T02:11:39;99946.25;;;-1.64;76.92
54806;BME280;62866;55.776;37.496;2023-01-29T02:14:05;99937.66;;;-1.66;76.71
54806;BME280;62866;55.776;37.496;2023-01-29T02:16:34;99937.53;;;-1.65;77.03
54806;BME280;62866;55.776;37.496;2023-01-29T02:19:00;99931.88;;;-1.59;76.61
54806;BME280;62866;55.776;37.496;2023-01-29T02:27:13;99920.81;;;-1.87;77.12
54806;BME280;62866;55.776;37.496;2023-01-29T02:29:48;99914.53;;;-1.98;77.51
54806;BME280;62866;55.776;37.496;2023-01-29T02:32:40;99915.38;;;-1.97;77.48
54806;BME280;62866;55.776;37.496;2023-01-29T02:35:41;99916.75;;;-2.04;77.06
54806;BME280;62866;55.776;37.496;2023-01-29T02:38:18;99908.69;;;-2.01;77.30
54806;BME280;62866;55.776;37.496;2023-01-29T02:40:56;99905.41;;;-2.17;76.47
54806;BME280;62866;55.776;37.496;2023-01-29T02:48:24;99882.69;;;-2.04;77.06
54806;BME280;62866;55.776;37.496;2023-01-29T02:51:03;99861.72;;;-2.17;76.74
54806;BME280;62866;55.776;37.496;2023-01-29T02:56:21;99876.09;;;-2.10;76.63
54806;BME280;62866;55.776;37.496;2023-01-29T02:58:58;99872.00;;;-2.14;77.10
54806;BME280;62866;55.776;37.496;2023-01-29T03:01:35;99880.50;;;-2.10;76.93
54806;BME280;62866;55.776;37.496;2023-01-29T03:04:08;99867.81;;;-2.16;76.75
54806;BME280;62866;55.776;37.496;2023-01-29T03:06:43;99869.91;;;-2.09;77.02
54806;BME280;62866;55.776;37.496;2023-01-29T03:09:19;99860.25;;;-2.08;77.08
54806;BME280;62866;55.776;37.496;2023-01-29T03:11:51;99864.94;;;-2.01;77.05
54806;BME280;62866;55.776;37.496;2023-01-29T03:14:24;99845.81;;;-2.14;76.80
54806;BME280;62866;55.776;37.496;2023-01-29T03:17:13;99844.53;;;-1.96;76.71
54806;BME280;62866;55.776;37.496;2023-01-29T03:19:40;99852.63;;;-2.11;76.85
54806;BME280;62866;55.776;37.496;2023-01-29T03:22:09;99830.28;;;-2.04;76.74
54806;BME280;62866;55.776;37.496;2023-01-29T03:24:44;99839.28;;;-1.96;76.72
54806;BME280;62866;55.776;37.496;2023-01-29T03:27:36;99825.25;;;-1.95;76.60
54806;BME280;62866;55.776;37.496;2023-01-29T03:30:24;99822.19;;;-1.88;76.69
54806;BME280;62866;55.776;37.496;2023-01-29T03:33:10;99805.22;;;-1.96;76.24
54806;BME280;62866;55.776;37.496;2023-01-29T03:35:44;99814.44;;;-1.90;76.72
54806;BME280;62866;55.776;37.496;2023-01-29T03:38:12;99807.66;;;-1.93;76.92
54806;BME280;62866;55.776;37.496;2023-01-29T03:40:50;99819.06;;;-1.94;76.70
54806;BME280;62866;55.776;37.496;2023-01-29T03:48:56;99795.78;;;-1.85;76.18
54806;BME280;62866;55.776;37.496;2023-01-29T03:51:31;99790.00;;;-1.91;76.41
54806;BME280;62866;55.776;37.496;2023-01-29T03:54:24;99783.72;;;-1.88;76.62
54806;BME280;62866;55.776;37.496;2023-01-29T03:59:41;99775.03;;;-1.88;76.51
54806;BME280;62866;55.776;37.496;2023-01-29T04:02:14;99788.19;;;-1.77;76.27
54806;BME280;62866;55.776;37.496;2023-01-29T04:04:44;99778.84;;;-1.69;75.86
54806;BME280;62866;55.776;37.496;2023-01-29T04:07:17;99772.78;;;-1.82;74.99
54806;BME280;62866;55.776;37.496;2023-01-29T04:10:08;99747.63;;;-2.08;74.92
54806;BME280;62866;55.776;37.496;2023-01-29T04:13:09;99769.38;;;-1.95;75.55
54806;BME280;62866;55.776;37.496;2023-01-29T04:15:40;99751.81;;;-2.06;75.71
54806;BME280;62866;55.776;37.496;2023-01-29T04:18:08;99768.63;;;-1.84;75.49
54806;BME280;62866;55.776;37.496;2023-01-29T04:20:34;99755.06;;;-1.78;75.65
54806;BME280;62866;55.776;37.496;2023-01-29T04:23:00;99764.31;;;-1.62;75.21
54806;BME280;62866;55.776;37.496;2023-01-29T04:25:30;99765.72;;;-1.69;75.09
54806;BME280;62866;55.776;37.496;2023-01-29T04:33:10;99768.28;;;-1.80;75.26
54806;BME280;62866;55.776;37.496;2023-01-29T04:35:53;99761.34;;;-1.81;75.68
54806;BME280;62866;55.776;37.496;2023-01-29T04:40:50;99755.94;;;-1.91;75.58
54806;BME280;62866;55.776;37.496;2023-01-29T04:43:27;99748.16;;;-2.03;75.85
54806;BME280;62866;55.776;37.496;2023-01-29T04:46:17;99752.84;;;-2.08;75.40
54806;BME280;62866;55.776;37.496;2023-01-29T04:59:44;99744.88;;;-1.94;75.81
54806;BME280;62866;55.776;37.496;2023-01-29T05:02:13;99723.09;;;-2.07;76.31
54806;BME280;62866;55.776;37.496;2023-01-29T05:04:40;99743.28;;;-1.97;76.02
54806;BME280;62866;55.776;37.496;2023-01-29T05:07:10;99739.84;;;-1.97;76.45
54806;BME280;62866;55.776;37.496;2023-01-29T05:09:38;99701.97;;;-2.17;75.94
54806;BME280;62866;55.776;37.496;2023-01-29T05:12:08;99729.56;;;-2.00;75.55
54806;BME280;62866;55.776;37.496;2023-01-29T05:14:36;99732.25;;;-1.89;75.84
54806;BME280;62866;55.776;37.496;2023-01-29T05:17:06;99725.44;;;-1.92;75.78
54806;BME280;62866;55.776;37.496;2023-01-29T05:19:33;99742.19;;;-1.81;75.45
54806;BME280;62866;55.776;37.496;2023-01-29T05:21:59;99728.91;;;-1.91;75.35
54806;BME280;62866;55.776;37.496;2023-01-29T05:24:25;99737.72;;;-1.92;75.34
54806;BME280;62866;55.776;37.496;2023-01-29T05:26:52;99742.34;;;-1.96;75.67
54806;BME280;62866;55.776;37.496;2023-01-29T05:29:41;99750.28;;;-1.84;75.64
54806;BME280;62866;55.776;37.496;2023-01-29T05:32:07;99727.97;;;-1.90;75.10
54806;BME280;62866;55.776;37.496;2023-01-29T05:34:33;99740.41;;;-1.81;74.61
54806;BME280;62866;55.776;37.496;2023-01-29T05:36:59;99736.72;;;-1.78;75.03
54806;BME280;62866;55.776;37.496;2023-01-29T05:39:24;99731.09;;;-1.85;74.88
54806;BME280;62866;55.776;37.496;2023-01-29T05:41:50;99741.44;;;-1.83;74.76
54806;BME280;62866;55.776;37.496;2023-01-29T05:44:15;99740.19;;;-1.78;74.22
54806;BME280;62866;55.776;37.496;2023-01-29T05:46:41;99750.03;;;-1.81;74.16
54806;BME280;62866;55.776;37.496;2023-01-29T05:49:08;99744.34;;;-1.75;74.69
54806;BME280;62866;55.776;37.496;2023-01-29T05:51:33;99738.63;;;-1.80;74.19
54806;BME280;62866;55.776;37.496;2023-01-29T05:53:59;99737.19;;;-1.84;74.32
54806;BME280;62866;55.776;37.496;2023-01-29T05:56:25;99743.00;;;-1.81;74.10
54806;BME280;62866;55.776;37.496;2023-01-29T05:58:50;99750.66;;;-1.78;74.14
54806;BME280;62866;55.776;37.496;2023-01-29T06:01:19;99743.13;;;-1.82;73.87
54806;BME280;62866;55.776;37.496;2023-01-29T06:03:45;99738.13;;;-1.85;73.74
54806;BME280;62866;55.776;37.496;2023-01-29T06:06:11;99744.75;;;-1.93;74.09
54806;BME280;62866;55.776;37.496;2023-01-29T06:08:37;99742.53;;;-1.86;74.58
54806;BME280;62866;55.776;37.496;2023-01-29T06:11:03;99744.63;;;-1.91;74.26
54806;BME280;62866;55.776;37.496;2023-01-29T06:13:31;99738.34;;;-1.88;73.98
54806;BME280;62866;55.776;37.496;2023-01-29T06:15:56;99742.84;;;-1.91;74.63
54806;BME280;62866;55.776;37.496;2023-01-29T06:18:22;99733.38;;;-1.80;74.65
54806;BME280;62866;55.776;37.496;2023-01-29T06:20:47;99724.19;;;-1.86;74.26
54806;BME280;62866;55.776;37.496;2023-01-29T06:23:13;99718.50;;;-1.80;74.45
54806;BME280;62866;55.776;37.496;2023-01-29T06:25:38;99720.53;;;-1.72;74.53
54806;BME280;62866;55.776;37.496;2023-01-29T06:28:04;99725.69;;;-1.71;74.12
54806;BME280;62866;55.776;37.496;2023-01-29T06:30:29;99710.69;;;-1.69;74.13
54806;BME280;62866;55.776;37.496;2023-01-29T06:32:56;99719.91;;;-1.52;74.06
54806;BME280;62866;55.776;37.496;2023-01-29T06:35:24;99691.50;;;-1.69;74.18
54806;BME280;62866;55.776;37.496;2023-01-29T06:37:49;99726.59;;;-1.48;74.11
54806;BME280;62866;55.776;37.496;2023-01-29T06:40:15;99726.59;;;-1.48;74.16
54806;BME280;62866;55.776;37.496;2023-01-29T06:42:41;99727.53;;;-1.49;74.11
54806;BME280;62866;55.776;37.496;2023-01-29T06:45:07;99722.81;;;-1.44;73.82
54806;BME280;62866;55.776;37.496;2023-01-29T06:47:32;99717.88;;;-1.48;74.03
54806;BME280;62866;55.776;37.496;2023-01-29T06:49:58;99713.38;;;-1.46;74.39
54806;BME280;62866;55.776;37.496;2023-01-29T06:52:23;99698.81;;;-1.50;74.30
54806;BME280;62866;55.776;37.496;2023-01-29T06:54:55;99692.88;;;-1.52;74.20
54806;BME280;62866;55.776;37.496;2023-01-29T06:57:21;99687.84;;;-1.56;74.41
54806;BME280;62866;55.776;37.496;2023-01-29T06:59:47;99690.69;;;-1.59;74.71
54806;BME280;62866;55.776;37.496;2023-01-29T07:02:12;99679.03;;;-1.55;74.11
54806;BME280;62866;55.776;37.496;2023-01-29T07:04:38;99674.25;;;-1.49;73.99
54806;BME280;62866;55.776;37.496;2023-01-29T07:07:06;99676.19;;;-1.51;73.87
54806;BME280;62866;55.776;37.496;2023-01-29T07:09:39;99669.28;;;-1.41;74.32
54806;BME280;62866;55.776;37.496;2023-01-29T07:12:05;99661.63;;;-1.56;73.93
54806;BME280;62866;55.776;37.496;2023-01-29T07:14:31;99678.13;;;-1.42;74.20
54806;BME280;62866;55.776;37.496;2023-01-29T07:16:56;99669.78;;;-1.36;73.42
54806;BME280;62866;55.776;37.496;2023-01-29T07:19:22;99670.97;;;-1.40;72.97
54806;BME280;62866;55.776;37.496;2023-01-29T07:21:48;99679.78;;;-1.41;73.36
54806;BME280;62866;55.776;37.496;2023-01-29T07:24:13;99665.72;;;-1.40;72.72
54806;BME280;62866;55.776;37.496;2023-01-29T07:26:40;99669.41;;;-1.43;73.09
54806;BME280;62866;55.776;37.496;2023-01-29T07:29:06;99668.69;;;-1.45;72.42
54806;BME280;62866;55.776;37.496;2023-01-29T07:31:32;99662.03;;;-1.38;72.70
54806;BME280;62866;55.776;37.496;2023-01-29T07:33:57;99660.63;;;-1.20;72.34
54806;BME280;62866;55.776;37.496;2023-01-29T07:36:23;99666.00;;;-0.99;71.91
54806;BME280;62866;55.776;37.496;2023-01-29T07:38:49;99666.38;;;-0.81;71.64
54806;BME280;62866;55.776;37.496;2023-01-29T07:41:15;99654.69;;;-0.77;71.38
54806;BME280;62866;55.776;37.496;2023-01-29T07:43:41;99653.81;;;-0.66;71.34
54806;BME280;62866;55.776;37.496;2023-01-29T07:46:06;99656.00;;;-0.60;70.92
54806;BME280;62866;55.776;37.496;2023-01-29T07:48:32;99644.50;;;-0.48;70.84
54806;BME280;62866;55.776;37.496;2023-01-29T07:50:58;99636.50;;;-0.58;70.53
54806;BME280;62866;55.776;37.496;2023-01-29T07:53:26;99635.94;;;-0.61;70.45
54806;BME280;62866;55.776;37.496;2023-01-29T07:55:51;99638.69;;;-0.52;70.28
54806;BME280;62866;55.776;37.496;2023-01-29T07:58:17;99635.81;;;-0.60;70.46
54806;BME280;62866;55.776;37.496;2023-01-29T08:00:43;99639.84;;;-0.45;70.50
54806;BME280;62866;55.776;37.496;2023-01-29T08:03:14;99644.81;;;-0.30;70.46
54806;BME280;62866;55.776;37.496;2023-01-29T08:05:41;99644.81;;;-0.30;70.29
54806;BME280;62866;55.776;37.496;2023-01-29T08:08:07;99637.69;;;-0.40;70.32
54806;BME280;62866;55.776;37.496;2023-01-29T08:10:34;99626.47;;;-0.42;70.08
54806;BME280;62866;55.776;37.496;2023-01-29T08:13:03;99622.03;;;-0.30;69.92
54806;BME280;62866;55.776;37.496;2023-01-29T08:15:29;99628.72;;;-0.26;70.23
54806;BME280;62866;55.776;37.496;2023-01-29T08:17:55;99625.59;;;-0.31;69.32
54806;BME280;62866;55.776;37.496;2023-01-29T08:20:21;99627.25;;;-0.19;69.00
54806;BME280;62866;55.776;37.496;2023-01-29T08:22:47;99623.72;;;-0.08;69.47
54806;BME280;62866;55.776;37.496;2023-01-29T08:25:13;99612.34;;;0.03;68.28
54806;BME280;62866;55.776;37.496;2023-01-29T08:27:40;99619.59;;;-0.11;68.19
54806;BME280;62866;55.776;37.496;2023-01-29T08:30:07;99620.53;;;-0.12;68.22
54806;BME280;62866;55.776;37.496;2023-01-29T08:32:33;99617.59;;;-0.29;67.88
54806;BME280;62866;55.776;37.496;2023-01-29T08:34:58;99611.81;;;-0.44;68.29
54806;BME280;62866;55.776;37.496;2023-01-29T08:37:24;99614.84;;;-0.28;67.92
54806;BME280;62866;55.776;37.496;2023-01-29T08:39:49;99622.00;;;-0.19;68.11
54806;BME280;62866;55.776;37.496;2023-01-29T08:42:15;99618.88;;;-0.24;67.78
54806;BME280;62866;55.776;37.496;2023-01-29T08:44:40;99615.81;;;-0.29;67.79
54806;BME280;62866;55.776;37.496;2023-01-29T08:47:06;99610.09;;;-0.34;68.48
54806;BME280;62866;55.776;37.496;2023-01-29T08:49:32;99612.81;;;-0.24;68.02
54806;BME280;62866;55.776;37.496;2023-01-29T08:51:57;99588.41;;;-0.47;67.53
54806;BME280;62866;55.776;37.496;2023-01-29T08:54:23;99628.34;;;-0.32;67.62
54806;BME280;62866;55.776;37.496;2023-01-29T08:56:49;99603.88;;;-0.33;67.75
54806;BME280;62866;55.776;37.496;2023-01-29T08:59:15;99618.06;;;-0.24;67.41
54806;BME280;62866;55.776;37.496;2023-01-29T09:01:41;99596.47;;;-0.28;66.68
54806;BME280;62866;55.776;37.496;2023-01-29T09:04:07;99603.41;;;-0.27;66.91
54806;BME280;62866;55.776;37.496;2023-01-29T09:06:32;99603.75;;;-0.31;67.22
54806;BME280;62866;55.776;37.496;2023-01-29T09:08:58;99602.25;;;-0.56;67.63
54806;BME280;62866;55.776;37.496;2023-01-29T09:11:23;99583.72;;;-0.75;68.00
54806;BME280;62866;55.776;37.496;2023-01-29T09:13:49;99601.22;;;-0.65;68.13
54806;BME280;62866;55.776;37.496;2023-01-29T09:16:14;99610.91;;;-0.77;68.45
54806;BME280;62866;55.776;37.496;2023-01-29T09:18:40;99607.06;;;-0.72;68.68
54806;BME280;62866;55.776;37.496;2023-01-29T09:21:06;99593.44;;;-0.66;68.56
54806;BME280;62866;55.776;37.496;2023-01-29T09:23:31;99600.69;;;-0.48;68.49
54806;BME280;62866;55.776;37.496;2023-01-29T09:25:57;99575.66;;;-0.52;68.39
54806;BME280;62866;55.776;37.496;2023-01-29T09:28:23;99596.38;;;-0.38;67.61
54806;BME280;62866;55.776;37.496;2023-01-29T09:30:49;99590.28;;;-0.38;68.00
54806;BME280;62866;55.776;37.496;2023-01-29T09:33:15;99595.41;;;-0.36;68.11
54806;BME280;62866;55.776;37.496;2023-01-29T09:35:41;99591.44;;;-0.20;67.78
54806;BME280;62866;55.776;37.496;2023-01-29T09:38:08;99582.00;;;-0.22;67.80
54806;BME280;62866;55.776;37.496;2023-01-29T09:40:59;99576.53;;;-0.30;67.88
54806;BME280;62866;55.776;37.496;2023-01-29T09:46:41;99580.09;;;-0.20;67.84
54806;BME280;62866;55.776;37.496;2023-01-29T09:49:10;99575.28;;;-0.15;68.30
54806;BME280;62866;55.776;37.496;2023-01-29T09:51:41;99569.78;;;-0.12;67.89
54806;BME280;62866;55.776;37.496;2023-01-29T09:57:14;99552.13;;;-0.21;67.68
54806;BME280;62866;55.776;37.496;2023-01-29T09:59:42;99555.34;;;-0.18;68.37
54806;BME280;62866;55.776;37.496;2023-01-29T10:05:24;99546.16;;;-0.23;68.13
54806;BME280;62866;55.776;37.496;2023-01-29T10:08:23;99550.75;;;-0.05;67.19
54806;BME280;62866;55.776;37.496;2023-01-29T10:10:49;99542.81;;;0.07;67.33
54806;BME280;62866;55.776;37.496;2023-01-29T10:13:43;99534.13;;;-0.05;67.01
54806;BME280;62866;55.776;37.496;2023-01-29T10:24:23;99503.75;;;0.23;66.33
54806;BME280;62866;55.776;37.496;2023-01-29T10:26:51;99492.41;;;0.22;66.37
54806;BME280;62866;55.776;37.496;2023-01-29T10:29:18;99482.13;;;0.40;66.14
54806;BME280;62866;55.776;37.496;2023-01-29T10:31:48;99491.28;;;0.46;66.34
54806;BME280;62866;55.776;37.496;2023-01-29T10:34:28;99480.44;;;0.39;66.45
54806;BME280;62866;55.776;37.496;2023-01-29T10:36:55;99477.03;;;0.48;65.98
54806;BME280;62866;55.776;37.496;2023-01-29T10:39:23;99467.72;;;0.44;66.37
54806;BME280;62866;55.776;37.496;2023-01-29T10:47:18;99459.59;;;0.47;66.13
54806;BME280;62866;55.776;37.496;2023-01-29T10:50:01;99457.78;;;0.48;66.25
54806;BME280;62866;55.776;37.496;2023-01-29T10:53:01;99459.66;;;0.36;65.92
54806;BME280;62866;55.776;37.496;2023-01-29T10:58:55;99454.44;;;0.46;65.36
54806;BME280;62866;55.776;37.496;2023-01-29T11:01:23;99446.00;;;0.52;65.50
54806;BME280;62866;55.776;37.496;2023-01-29T11:04:00;99440.53;;;0.64;64.63
54806;BME280;62866;55.776;37.496;2023-01-29T11:06:30;99445.38;;;0.69;64.72
54806;BME280;62866;55.776;37.496;2023-01-29T11:14:27;99437.19;;;0.62;65.12
54806;BME280;62866;55.776;37.496;2023-01-29T11:16:54;99432.09;;;0.70;64.73
54806;BME280;62866;55.776;37.496;2023-01-29T11:19:41;99425.16;;;0.69;64.33
54806;BME280;62866;55.776;37.496;2023-01-29T11:22:16;99437.09;;;0.73;64.50
54806;BME280;62866;55.776;37.496;2023-01-29T11:24:44;99428.75;;;0.68;64.23
54806;BME280;62866;55.776;37.496;2023-01-29T11:27:43;99431.72;;;0.75;63.92
54806;BME280;62866;55.776;37.496;2023-01-29T11:30:29;99403.97;;;0.61;64.34
54806;BME280;62866;55.776;37.496;2023-01-29T11:33:24;99420.47;;;0.73;64.23
54806;BME280;62866;55.776;37.496;2023-01-29T11:35:50;99413.94;;;0.58;63.74
54806;BME280;62866;55.776;37.496;2023-01-29T11:38:26;99420.84;;;0.59;64.64
54806;BME280;62866;55.776;37.496;2023-01-29T11:41:04;99409.59;;;0.47;64.45
54806;BME280;62866;55.776;37.496;2023-01-29T11:43:31;99414.75;;;0.49;64.36
54806;BME280;62866;55.776;37.496;2023-01-29T11:46:05;99415.69;;;0.48;64.82
54806;BME280;62866;55.776;37.496;2023-01-29T11:48:40;99416.63;;;0.37;64.97
54806;BME280;62866;55.776;37.496;2023-01-29T11:51:07;99414.25;;;0.34;65.14
54806;BME280;62866;55.776;37.496;2023-01-29T11:53:38;99402.34;;;0.30;65.01
54806;BME280;62866;55.776;37.496;2023-01-29T11:58:42;99393.66;;;0.39;64.98
54806;BME280;62866;55.776;37.496;2023-01-29T12:01:08;99393.69;;;0.49;64.96
54806;BME280;62866;55.776;37.496;2023-01-29T12:03:43;99392.88;;;0.48;64.62
54806;BME280;62866;55.776;37.496;2023-01-29T12:06:16;99399.19;;;0.36;64.81
54806;BME280;62866;55.776;37.496;2023-01-29T12:08:43;99398.53;;;0.13;65.18
54806;BME280;62866;55.776;37.496;2023-01-29T12:11:23;99388.00;;;0.04;65.67
54806;BME280;62866;55.776;37.496;2023-01-29T12:13:53;99391.16;;;-0.03;65.52
54806;BME280;62866;55.776;37.496;2023-01-29T12:16:22;99395.81;;;-0.06;66.00
54806;BME280;62866;55.776;37.496;2023-01-29T12:21:46;99385.13;;;-0.14;66.01
54806;BME280;62866;55.776;37.496;2023-01-29T12:27:18;99395.88;;;-0.27;66.48
54806;BME280;62866;55.776;37.496;2023-01-29T12:30:03;99391.94;;;-0.32;66.63
54806;BME280;62866;55.776;37.496;2023-01-29T12:32:55;99384.47;;;-0.37;66.91
54806;BME280;62866;55.776;37.496;2023-01-29T12:35:32;99381.97;;;-0.39;66.93
54806;BME280;62866;55.776;37.496;2023-01-29T12:38:06;99387.63;;;-0.43;67.15
54806;BME280;62866;55.776;37.496;2023-01-29T12:40:38;99390.47;;;-0.46;67.21
54806;BME280;62866;55.776;37.496;2023-01-29T12:43:56;99383.81;;;-0.50;67.21
54806;BME280;62866;55.776;37.496;2023-01-29T12:45:57;99397.53;;;-0.47;67.64
54806;BME280;62866;55.776;37.496;2023-01-29T12:48:30;99389.53;;;-0.45;67.60
54806;BME280;62866;55.776;37.496;2023-01-29T12:51:34;99393.81;;;-0.44;67.80
54806;BME280;62866;55.776;37.496;2023-01-29T12:54:06;99395.31;;;-0.51;68.06
54806;BME280;62866;55.776;37.496;2023-01-29T12:56:47;99396.25;;;-0.52;68.40
54806;BME280;62866;55.776;37.496;2023-01-29T12:59:35;99398.41;;;-0.57;68.73
54806;BME280;62866;55.776;37.496;2023-01-29T13:02:36;99387.06;;;-0.58;68.91
54806;BME280;62866;55.776;37.496;2023-01-29T13:05:24;99393.56;;;-0.62;68.98
54806;BME280;62866;55.776;37.496;2023-01-29T13:07:52;99383.44;;;-0.66;68.94
54806;BME280;62866;55.776;37.496;2023-01-29T13:10:24;99377.72;;;-0.71;69.47
54806;BME280;62866;55.776;37.496;2023-01-29T13:12:59;99369.41;;;-0.77;69.83
54806;BME280;62866;55.776;37.496;2023-01-29T13:15:45;99368.19;;;-0.72;69.89
54806;BME280;62866;55.776;37.496;2023-01-29T13:21:42;99367.66;;;-0.66;69.80
54806;BME280;62866;55.776;37.496;2023-01-29T13:24:17;99361.38;;;-0.75;69.96
54806;BME280;62866;55.776;37.496;2023-01-29T13:26:46;99361.38;;;-0.75;70.27
54806;BME280;62866;55.776;37.496;2023-01-29T13:29:29;99364.53;;;-0.81;70.57
54806;BME280;62866;55.776;37.496;2023-01-29T13:31:56;99356.34;;;-0.88;70.74
54806;BME280;62866;55.776;37.496;2023-01-29T13:34:30;99368.25;;;-0.84;70.76
54806;BME280;62866;55.776;37.496;2023-01-29T13:37:00;99370.28;;;-0.87;71.38
54806;BME280;62866;55.776;37.496;2023-01-29T13:39:44;99366.72;;;-0.86;71.60
54806;BME280;62866;55.776;37.496;2023-01-29T13:42:17;99365.75;;;-0.85;71.35
54806;BME280;62866;55.776;37.496;2023-01-29T13:44:47;99360.00;;;-0.79;71.24
54806;BME280;62866;55.776;37.496;2023-01-29T13:47:26;99350.50;;;-0.91;71.62
54806;BME280;62866;55.776;37.496;2023-01-29T13:49:59;99361.19;;;-0.83;71.60
54806;BME280;62866;55.776;37.496;2023-01-29T13:55:34;99349.09;;;-0.74;71.32
54806;BME280;62866;55.776;37.496;2023-01-29T13:57:58;99348.97;;;-0.73;70.97
54806;BME280;62866;55.776;37.496;2023-01-29T14:05:39;99344.84;;;-0.75;71.41
54806;BME280;62866;55.776;37.496;2023-01-29T14:10:35;99337.13;;;-1.09;72.23
54806;BME280;62866;55.776;37.496;2023-01-29T14:15:37;99331.28;;;-0.92;72.45
54806;BME280;62866;55.776;37.496;2023-01-29T14:20:39;99332.97;;;-0.91;72.22
54806;BME280;62866;55.776;37.496;2023-01-29T14:23:06;99330.50;;;-0.92;72.32
54806;BME280;62866;55.776;37.496;2023-01-29T14:25:37;99328.94;;;-0.95;72.57
54806;BME280;62866;55.776;37.496;2023-01-29T14:28:14;99314.03;;;-0.94;72.67
54806;BME280;62866;55.776;37.496;2023-01-29T14:30:46;99324.97;;;-0.89;72.81
54806;BME280;62866;55.776;37.496;2023-01-29T14:35:54;99331.38;;;-0.82;72.46
54806;BME280;62866;55.776;37.496;2023-01-29T14:38:22;99328.88;;;-0.84;72.62
54806;BME280;62866;55.776;37.496;2023-01-29T14:41:11;99327.47;;;-0.88;72.41
54806;BME280;62866;55.776;37.496;2023-01-29T14:43:39;99329.84;;;-0.85;72.51
54806;BME280;62866;55.776;37.496;2023-01-29T14:48:58;99324.25;;;-0.91;72.64
54806;BME280;62866;55.776;37.496;2023-01-29T14:51:24;99315.88;;;-1.06;72.62
54806;BME280;62866;55.776;37.496;2023-01-29T14:54:03;99322.88;;;-0.95;72.72
54806;BME280;62866;55.776;37.496;2023-01-29T14:56:45;99321.19;;;-0.96;73.03
54806;BME280;62866;55.776;37.496;2023-01-29T14:59:25;99307.25;;;-0.97;73.05